CheckWX is a tool to help pilots better visualize weather data.  It is not intended as a substitute for an official pre-flight weather briefing.

09:26:20 UTC

08D METAR
Stanley Municipal Airport
Stanley, North Dakota, USA
Current

31 mins ago

K08D 200855Z AUTO 17007KT 10SM FEW033 SCT038 BKN046 M20/M21 A2978 RMK AO2
Observed
Feb-20 @ 08:55 UTC
Wind
  • 170° at 7 KTS
Visibility
16,093 meters
Flight Rules
VFR
Cloud Levels
  • Few at 3,300' AGL
  • Scattered at 3,800' AGL
  • Broken at 4,600' AGL
Temperature
-20°C / -4°F
Dewpoint
-21°C / -6°F
Humidity
92%
Altimeter
29.78" Hg
Pressure
1008.42 hPa
Previous

51 mins ago

K08D 200835Z AUTO 16005KT 10SM BKN075 OVC090 M19/M21 A2978 RMK AO2
Observed
Feb-20 @ 08:35 UTC
Wind
  • 160° at 5 KTS
Visibility
16,093 meters
Flight Rules
VFR
Cloud Levels
  • Broken at 7,500' AGL
  • Overcast at 9,000' AGL
Temperature
-19°C / -2°F
Dewpoint
-21°C / -6°F
Humidity
84%
Altimeter
29.78" Hg
Pressure
1008.42 hPa
Previous

1 hour ago

K08D 200815Z AUTO 00000KT 10SM SCT080 OVC090 M19/M21 A2979 RMK AO2
Observed
Feb-20 @ 08:15 UTC
Visibility
16,093 meters
Flight Rules
VFR
Cloud Levels
  • Scattered at 8,000' AGL
  • Overcast at 9,000' AGL
Temperature
-19°C / -2°F
Dewpoint
-21°C / -6°F
Humidity
84%
Altimeter
29.79" Hg
Pressure
1008.82 hPa